sensor_id;sensor_type;location;lat;lon;timestamp;P1;durP1;ratioP1;P2;durP2;ratioP2
6832;SDS011;3454;42.654;23.378;2022-08-19T00:00:28;5.35;;;4.32;;
6832;SDS011;3454;42.654;23.378;2022-08-19T00:02:54;7.85;;;4.97;;
6832;SDS011;3454;42.654;23.378;2022-08-19T00:05:20;4.90;;;4.40;;
6832;SDS011;3454;42.654;23.378;2022-08-19T00:07:47;5.50;;;4.25;;
6832;SDS011;3454;42.654;23.378;2022-08-19T00:10:14;4.78;;;4.25;;
6832;SDS011;3454;42.654;23.378;2022-08-19T00:12:41;5.25;;;4.38;;
6832;SDS011;3454;42.654;23.378;2022-08-19T00:15:08;6.50;;;4.95;;
6832;SDS011;3454;42.654;23.378;2022-08-19T00:17:37;5.18;;;4.68;;
6832;SDS011;3454;42.654;23.378;2022-08-19T00:20:06;5.63;;;4.65;;
6832;SDS011;3454;42.654;23.378;2022-08-19T00:22:32;5.45;;;4.95;;
6832;SDS011;3454;42.654;23.378;2022-08-19T00:24:58;6.22;;;4.63;;
6832;SDS011;3454;42.654;23.378;2022-08-19T00:27:24;5.47;;;4.13;;
6832;SDS011;3454;42.654;23.378;2022-08-19T00:29:49;4.93;;;4.53;;
6832;SDS011;3454;42.654;23.378;2022-08-19T00:32:15;5.03;;;4.47;;
6832;SDS011;3454;42.654;23.378;2022-08-19T00:34:41;7.45;;;5.18;;
6832;SDS011;3454;42.654;23.378;2022-08-19T00:37:06;5.22;;;4.72;;
6832;SDS011;3454;42.654;23.378;2022-08-19T00:39:32;6.10;;;4.72;;
6832;SDS011;3454;42.654;23.378;2022-08-19T00:41:57;5.90;;;5.30;;
6832;SDS011;3454;42.654;23.378;2022-08-19T00:44:24;8.35;;;6.68;;
6832;SDS011;3454;42.654;23.378;2022-08-19T00:46:53;5.43;;;4.93;;
6832;SDS011;3454;42.654;23.378;2022-08-19T00:52:35;6.63;;;5.65;;
6832;SDS011;3454;42.654;23.378;2022-08-19T00:55:05;4.97;;;4.47;;
6832;SDS011;3454;42.654;23.378;2022-08-19T00:57:36;6.57;;;5.15;;
6832;SDS011;3454;42.654;23.378;2022-08-19T01:00:10;8.05;;;4.95;;
6832;SDS011;3454;42.654;23.378;2022-08-19T01:02:39;6.00;;;5.07;;
6832;SDS011;3454;42.654;23.378;2022-08-19T01:05:07;5.43;;;4.88;;
6832;SDS011;3454;42.654;23.378;2022-08-19T01:07:35;5.40;;;4.88;;
6832;SDS011;3454;42.654;23.378;2022-08-19T01:10:04;7.80;;;5.38;;
6832;SDS011;3454;42.654;23.378;2022-08-19T01:12:32;5.88;;;4.93;;
6832;SDS011;3454;42.654;23.378;2022-08-19T01:14:57;5.57;;;5.07;;
6832;SDS011;3454;42.654;23.378;2022-08-19T01:17:24;7.07;;;5.15;;
6832;SDS011;3454;42.654;23.378;2022-08-19T01:19:50;5.88;;;5.03;;
6832;SDS011;3454;42.654;23.378;2022-08-19T01:24:48;7.78;;;5.18;;
6832;SDS011;3454;42.654;23.378;2022-08-19T01:27:14;6.20;;;4.82;;
6832;SDS011;3454;42.654;23.378;2022-08-19T01:29:41;5.28;;;4.65;;
6832;SDS011;3454;42.654;23.378;2022-08-19T01:32:09;7.07;;;4.68;;
6832;SDS011;3454;42.654;23.378;2022-08-19T01:34:38;6.43;;;4.35;;
6832;SDS011;3454;42.654;23.378;2022-08-19T01:37:08;7.38;;;5.47;;
6832;SDS011;3454;42.654;23.378;2022-08-19T01:39:36;5.82;;;5.32;;
6832;SDS011;3454;42.654;23.378;2022-08-19T01:42:03;5.05;;;4.65;;
6832;SDS011;3454;42.654;23.378;2022-08-19T01:44:30;5.28;;;4.75;;
6832;SDS011;3454;42.654;23.378;2022-08-19T01:46:55;5.32;;;4.82;;
6832;SDS011;3454;42.654;23.378;2022-08-19T01:49:22;6.43;;;5.47;;
6832;SDS011;3454;42.654;23.378;2022-08-19T01:51:50;5.15;;;4.72;;
6832;SDS011;3454;42.654;23.378;2022-08-19T01:54:16;17.25;;;5.38;;
6832;SDS011;3454;42.654;23.378;2022-08-19T01:56:43;9.90;;;5.40;;
6832;SDS011;3454;42.654;23.378;2022-08-19T01:59:14;5.60;;;5.10;;
6832;SDS011;3454;42.654;23.378;2022-08-19T02:01:42;7.82;;;5.28;;
6832;SDS011;3454;42.654;23.378;2022-08-19T02:04:08;6.97;;;5.30;;
6832;SDS011;3454;42.654;23.378;2022-08-19T02:06:34;7.68;;;4.95;;
6832;SDS011;3454;42.654;23.378;2022-08-19T02:09:00;5.47;;;4.85;;
6832;SDS011;3454;42.654;23.378;2022-08-19T02:11:30;6.28;;;4.97;;
6832;SDS011;3454;42.654;23.378;2022-08-19T02:13:58;7.47;;;5.28;;
6832;SDS011;3454;42.654;23.378;2022-08-19T02:16:27;7.05;;;5.43;;
6832;SDS011;3454;42.654;23.378;2022-08-19T02:18:52;8.15;;;5.43;;
6832;SDS011;3454;42.654;23.378;2022-08-19T02:21:18;6.07;;;5.07;;
6832;SDS011;3454;42.654;23.378;2022-08-19T02:23:46;6.45;;;5.65;;
6832;SDS011;3454;42.654;23.378;2022-08-19T02:26:12;6.55;;;4.90;;
6832;SDS011;3454;42.654;23.378;2022-08-19T02:28:38;5.57;;;5.10;;
6832;SDS011;3454;42.654;23.378;2022-08-19T02:31:08;6.10;;;4.82;;
6832;SDS011;3454;42.654;23.378;2022-08-19T02:33:40;7.57;;;6.05;;
6832;SDS011;3454;42.654;23.378;2022-08-19T02:36:06;6.97;;;5.03;;
6832;SDS011;3454;42.654;23.378;2022-08-19T02:38:32;6.57;;;5.13;;
6832;SDS011;3454;42.654;23.378;2022-08-19T02:41:00;5.88;;;5.32;;
6832;SDS011;3454;42.654;23.378;2022-08-19T02:43:29;7.22;;;5.25;;
6832;SDS011;3454;42.654;23.378;2022-08-19T02:45:56;7.47;;;5.57;;
6832;SDS011;3454;42.654;23.378;2022-08-19T02:48:22;6.05;;;5.53;;
6832;SDS011;3454;42.654;23.378;2022-08-19T02:50:50;6.70;;;5.82;;
6832;SDS011;3454;42.654;23.378;2022-08-19T02:53:23;5.93;;;5.43;;
6832;SDS011;3454;42.654;23.378;2022-08-19T02:55:51;6.18;;;5.60;;
6832;SDS011;3454;42.654;23.378;2022-08-19T02:58:17;7.70;;;5.75;;
6832;SDS011;3454;42.654;23.378;2022-08-19T03:00:45;8.20;;;6.00;;
6832;SDS011;3454;42.654;23.378;2022-08-19T03:03:13;6.07;;;5.47;;
6832;SDS011;3454;42.654;23.378;2022-08-19T03:05:40;8.77;;;5.93;;
6832;SDS011;3454;42.654;23.378;2022-08-19T03:08:06;10.18;;;5.78;;
6832;SDS011;3454;42.654;23.378;2022-08-19T03:10:39;5.65;;;5.15;;
6832;SDS011;3454;42.654;23.378;2022-08-19T03:13:07;5.63;;;5.13;;
6832;SDS011;3454;42.654;23.378;2022-08-19T03:15:33;7.03;;;5.93;;
6832;SDS011;3454;42.654;23.378;2022-08-19T03:17:59;6.35;;;5.53;;
6832;SDS011;3454;42.654;23.378;2022-08-19T03:20:24;9.60;;;5.72;;
6832;SDS011;3454;42.654;23.378;2022-08-19T03:22:51;6.40;;;5.35;;
6832;SDS011;3454;42.654;23.378;2022-08-19T03:25:16;5.85;;;5.25;;
6832;SDS011;3454;42.654;23.378;2022-08-19T03:27:42;8.77;;;5.80;;
6832;SDS011;3454;42.654;23.378;2022-08-19T03:30:08;9.13;;;5.82;;
6832;SDS011;3454;42.654;23.378;2022-08-19T03:32:35;6.25;;;5.63;;
6832;SDS011;3454;42.654;23.378;2022-08-19T03:35:00;6.60;;;5.13;;
6832;SDS011;3454;42.654;23.378;2022-08-19T03:37:27;8.13;;;6.28;;
6832;SDS011;3454;42.654;23.378;2022-08-19T03:39:53;7.13;;;5.55;;
6832;SDS011;3454;42.654;23.378;2022-08-19T03:42:18;6.22;;;5.53;;
6832;SDS011;3454;42.654;23.378;2022-08-19T03:44:44;6.13;;;4.93;;
6832;SDS011;3454;42.654;23.378;2022-08-19T03:47:09;7.00;;;5.32;;
6832;SDS011;3454;42.654;23.378;2022-08-19T03:49:45;6.85;;;6.15;;
6832;SDS011;3454;42.654;23.378;2022-08-19T03:52:11;8.05;;;5.95;;
6832;SDS011;3454;42.654;23.378;2022-08-19T03:54:36;6.60;;;6.00;;
6832;SDS011;3454;42.654;23.378;2022-08-19T03:57:03;6.95;;;5.63;;
6832;SDS011;3454;42.654;23.378;2022-08-19T03:59:30;8.10;;;5.32;;
6832;SDS011;3454;42.654;23.378;2022-08-19T04:01:59;6.05;;;5.25;;
6832;SDS011;3454;42.654;23.378;2022-08-19T04:04:26;6.50;;;5.50;;
6832;SDS011;3454;42.654;23.378;2022-08-19T04:06:53;6.47;;;5.72;;
6832;SDS011;3454;42.654;23.378;2022-08-19T04:09:19;7.88;;;5.90;;
6832;SDS011;3454;42.654;23.378;2022-08-19T04:11:46;6.45;;;4.90;;
6832;SDS011;3454;42.654;23.378;2022-08-19T04:14:18;6.93;;;5.35;;
6832;SDS011;3454;42.654;23.378;2022-08-19T04:16:46;6.00;;;5.15;;
6832;SDS011;3454;42.654;23.378;2022-08-19T04:19:13;8.38;;;6.15;;
6832;SDS011;3454;42.654;23.378;2022-08-19T04:21:40;6.68;;;5.90;;
6832;SDS011;3454;42.654;23.378;2022-08-19T04:24:10;6.65;;;6.05;;
6832;SDS011;3454;42.654;23.378;2022-08-19T04:26:37;13.10;;;6.68;;
6832;SDS011;3454;42.654;23.378;2022-08-19T04:29:05;8.45;;;6.22;;
6832;SDS011;3454;42.654;23.378;2022-08-19T04:31:38;8.07;;;5.78;;
6832;SDS011;3454;42.654;23.378;2022-08-19T04:34:05;6.05;;;5.45;;
6832;SDS011;3454;42.654;23.378;2022-08-19T04:36:34;7.00;;;5.28;;
6832;SDS011;3454;42.654;23.378;2022-08-19T04:39:02;6.43;;;5.43;;
6832;SDS011;3454;42.654;23.378;2022-08-19T04:41:30;7.00;;;6.35;;
6832;SDS011;3454;42.654;23.378;2022-08-19T04:44:14;7.15;;;6.15;;
6832;SDS011;3454;42.654;23.378;2022-08-19T04:46:43;6.32;;;5.45;;
6832;SDS011;3454;42.654;23.378;2022-08-19T04:49:09;6.38;;;5.78;;
6832;SDS011;3454;42.654;23.378;2022-08-19T04:51:35;6.00;;;5.50;;
6832;SDS011;3454;42.654;23.378;2022-08-19T04:54:02;8.35;;;5.68;;
6832;SDS011;3454;42.654;23.378;2022-08-19T04:56:28;8.00;;;6.05;;
6832;SDS011;3454;42.654;23.378;2022-08-19T04:58:54;6.43;;;5.00;;
6832;SDS011;3454;42.654;23.378;2022-08-19T05:01:21;6.63;;;5.78;;
6832;SDS011;3454;42.654;23.378;2022-08-19T05:03:50;10.00;;;6.00;;
6832;SDS011;3454;42.654;23.378;2022-08-19T05:06:16;6.60;;;6.00;;
6832;SDS011;3454;42.654;23.378;2022-08-19T05:08:44;9.27;;;6.43;;
6832;SDS011;3454;42.654;23.378;2022-08-19T05:11:11;6.68;;;5.78;;
6832;SDS011;3454;42.654;23.378;2022-08-19T05:13:37;12.48;;;6.82;;
6832;SDS011;3454;42.654;23.378;2022-08-19T05:16:03;8.23;;;6.80;;
6832;SDS011;3454;42.654;23.378;2022-08-19T05:18:30;8.20;;;6.55;;
6832;SDS011;3454;42.654;23.378;2022-08-19T05:21:15;9.73;;;6.75;;
6832;SDS011;3454;42.654;23.378;2022-08-19T05:24:01;10.27;;;7.03;;
6832;SDS011;3454;42.654;23.378;2022-08-19T05:26:28;8.13;;;6.10;;
6832;SDS011;3454;42.654;23.378;2022-08-19T05:28:53;8.68;;;6.90;;
6832;SDS011;3454;42.654;23.378;2022-08-19T05:31:20;7.93;;;7.20;;
6832;SDS011;3454;42.654;23.378;2022-08-19T05:33:47;10.57;;;7.55;;
6832;SDS011;3454;42.654;23.378;2022-08-19T05:36:13;12.05;;;7.50;;
6832;SDS011;3454;42.654;23.378;2022-08-19T05:38:39;11.02;;;7.45;;
6832;SDS011;3454;42.654;23.378;2022-08-19T05:41:12;8.38;;;6.53;;
6832;SDS011;3454;42.654;23.378;2022-08-19T05:43:39;8.85;;;7.93;;
6832;SDS011;3454;42.654;23.378;2022-08-19T05:46:06;10.98;;;7.60;;
6832;SDS011;3454;42.654;23.378;2022-08-19T05:48:33;13.30;;;7.32;;
6832;SDS011;3454;42.654;23.378;2022-08-19T05:51:04;12.57;;;6.60;;
6832;SDS011;3454;42.654;23.378;2022-08-19T05:53:31;8.82;;;6.95;;
6832;SDS011;3454;42.654;23.378;2022-08-19T05:56:03;7.93;;;6.80;;
6832;SDS011;3454;42.654;23.378;2022-08-19T05:58:41;10.10;;;7.13;;
6832;SDS011;3454;42.654;23.378;2022-08-19T06:01:12;11.98;;;7.63;;
6832;SDS011;3454;42.654;23.378;2022-08-19T06:03:40;8.35;;;7.07;;
6832;SDS011;3454;42.654;23.378;2022-08-19T06:06:06;12.85;;;6.85;;
6832;SDS011;3454;42.654;23.378;2022-08-19T06:08:33;8.35;;;7.30;;
6832;SDS011;3454;42.654;23.378;2022-08-19T06:11:11;9.75;;;6.47;;
6832;SDS011;3454;42.654;23.378;2022-08-19T06:13:39;9.77;;;6.75;;
6832;SDS011;3454;42.654;23.378;2022-08-19T06:16:05;9.70;;;6.75;;
6832;SDS011;3454;42.654;23.378;2022-08-19T06:18:30;8.88;;;6.35;;
6832;SDS011;3454;42.654;23.378;2022-08-19T06:20:56;9.93;;;6.20;;
6832;SDS011;3454;42.654;23.378;2022-08-19T06:23:21;10.00;;;5.90;;
6832;SDS011;3454;42.654;23.378;2022-08-19T06:25:47;11.32;;;6.75;;
6832;SDS011;3454;42.654;23.378;2022-08-19T06:28:12;9.15;;;6.45;;
6832;SDS011;3454;42.654;23.378;2022-08-19T06:30:38;9.82;;;7.18;;
6832;SDS011;3454;42.654;23.378;2022-08-19T06:33:03;9.25;;;5.97;;
6832;SDS011;3454;42.654;23.378;2022-08-19T06:35:29;8.60;;;6.15;;
6832;SDS011;3454;42.654;23.378;2022-08-19T06:37:55;7.80;;;5.72;;
6832;SDS011;3454;42.654;23.378;2022-08-19T06:40:20;7.45;;;6.05;;
6832;SDS011;3454;42.654;23.378;2022-08-19T06:42:47;7.05;;;5.90;;
6832;SDS011;3454;42.654;23.378;2022-08-19T06:45:12;9.70;;;6.18;;
6832;SDS011;3454;42.654;23.378;2022-08-19T06:47:37;6.97;;;5.80;;
6832;SDS011;3454;42.654;23.378;2022-08-19T06:50:03;9.18;;;6.72;;
6832;SDS011;3454;42.654;23.378;2022-08-19T06:52:30;13.02;;;8.20;;
6832;SDS011;3454;42.654;23.378;2022-08-19T06:54:57;15.70;;;6.78;;
6832;SDS011;3454;42.654;23.378;2022-08-19T06:57:24;45.08;;;33.20;;
6832;SDS011;3454;42.654;23.378;2022-08-19T06:59:50;22.65;;;13.25;;
6832;SDS011;3454;42.654;23.378;2022-08-19T07:02:16;15.45;;;6.57;;
6832;SDS011;3454;42.654;23.378;2022-08-19T07:04:43;21.35;;;15.68;;
6832;SDS011;3454;42.654;23.378;2022-08-19T07:07:09;18.95;;;12.20;;
6832;SDS011;3454;42.654;23.378;2022-08-19T07:09:38;12.85;;;6.43;;
6832;SDS011;3454;42.654;23.378;2022-08-19T07:12:08;15.68;;;8.15;;
6832;SDS011;3454;42.654;23.378;2022-08-19T07:14:35;10.57;;;7.20;;
6832;SDS011;3454;42.654;23.378;2022-08-19T07:17:02;14.02;;;7.53;;
6832;SDS011;3454;42.654;23.378;2022-08-19T07:19:30;16.67;;;9.07;;
6832;SDS011;3454;42.654;23.378;2022-08-19T07:21:57;16.65;;;9.05;;
6832;SDS011;3454;42.654;23.378;2022-08-19T07:24:27;11.02;;;6.10;;
6832;SDS011;3454;42.654;23.378;2022-08-19T07:26:54;13.45;;;6.30;;
6832;SDS011;3454;42.654;23.378;2022-08-19T07:29:21;12.60;;;7.25;;
6832;SDS011;3454;42.654;23.378;2022-08-19T07:31:49;9.70;;;6.40;;
6832;SDS011;3454;42.654;23.378;2022-08-19T07:34:15;14.98;;;7.45;;
6832;SDS011;3454;42.654;23.378;2022-08-19T07:36:42;11.88;;;7.05;;
6832;SDS011;3454;42.654;23.378;2022-08-19T07:39:13;9.13;;;6.55;;
6832;SDS011;3454;42.654;23.378;2022-08-19T07:41:41;11.32;;;6.47;;
6832;SDS011;3454;42.654;23.378;2022-08-19T07:44:08;12.20;;;6.57;;
6832;SDS011;3454;42.654;23.378;2022-08-19T07:46:35;21.08;;;11.30;;
6832;SDS011;3454;42.654;23.378;2022-08-19T07:49:05;9.38;;;6.15;;
6832;SDS011;3454;42.654;23.378;2022-08-19T07:51:32;7.35;;;5.85;;
6832;SDS011;3454;42.654;23.378;2022-08-19T07:53:58;9.85;;;6.63;;
6832;SDS011;3454;42.654;23.378;2022-08-19T07:56:25;13.13;;;6.90;;
6832;SDS011;3454;42.654;23.378;2022-08-19T07:58:51;9.93;;;6.50;;
6832;SDS011;3454;42.654;23.378;2022-08-19T08:01:22;12.00;;;6.28;;
6832;SDS011;3454;42.654;23.378;2022-08-19T08:03:50;12.77;;;5.57;;
6832;SDS011;3454;42.654;23.378;2022-08-19T08:06:36;6.05;;;5.45;;
6832;SDS011;3454;42.654;23.378;2022-08-19T08:09:22;7.82;;;6.40;;
6832;SDS011;3454;42.654;23.378;2022-08-19T08:11:56;10.75;;;6.78;;
6832;SDS011;3454;42.654;23.378;2022-08-19T08:14:26;11.75;;;5.90;;
6832;SDS011;3454;42.654;23.378;2022-08-19T08:16:55;11.20;;;6.82;;
6832;SDS011;3454;42.654;23.378;2022-08-19T08:19:23;14.23;;;5.97;;
6832;SDS011;3454;42.654;23.378;2022-08-19T08:21:52;11.10;;;6.70;;
6832;SDS011;3454;42.654;23.378;2022-08-19T08:24:19;13.57;;;6.60;;
6832;SDS011;3454;42.654;23.378;2022-08-19T08:26:45;11.38;;;6.75;;
6832;SDS011;3454;42.654;23.378;2022-08-19T08:29:11;14.15;;;6.53;;
6832;SDS011;3454;42.654;23.378;2022-08-19T08:31:38;13.57;;;6.40;;
6832;SDS011;3454;42.654;23.378;2022-08-19T08:34:05;11.55;;;6.28;;
6832;SDS011;3454;42.654;23.378;2022-08-19T08:36:31;15.60;;;6.47;;
6832;SDS011;3454;42.654;23.378;2022-08-19T08:38:59;12.77;;;7.25;;
6832;SDS011;3454;42.654;23.378;2022-08-19T08:43:56;10.73;;;6.40;;
6832;SDS011;3454;42.654;23.378;2022-08-19T08:46:27;7.13;;;5.28;;
6832;SDS011;3454;42.654;23.378;2022-08-19T08:54:42;9.70;;;4.50;;
6832;SDS011;3454;42.654;23.378;2022-08-19T08:57:14;7.22;;;4.50;;
6832;SDS011;3454;42.654;23.378;2022-08-19T08:59:45;6.75;;;4.50;;
6832;SDS011;3454;42.654;23.378;2022-08-19T09:02:17;10.25;;;4.80;;
6832;SDS011;3454;42.654;23.378;2022-08-19T09:04:43;8.75;;;4.75;;
6832;SDS011;3454;42.654;23.378;2022-08-19T09:07:15;15.63;;;5.78;;
6832;SDS011;3454;42.654;23.378;2022-08-19T09:09:52;9.15;;;5.53;;
6832;SDS011;3454;42.654;23.378;2022-08-19T09:12:30;6.85;;;4.68;;
6832;SDS011;3454;42.654;23.378;2022-08-19T09:15:15;9.77;;;5.32;;
6832;SDS011;3454;42.654;23.378;2022-08-19T09:17:43;6.07;;;4.93;;
6832;SDS011;3454;42.654;23.378;2022-08-19T09:22:39;7.18;;;4.70;;
6832;SDS011;3454;42.654;23.378;2022-08-19T09:25:09;6.60;;;4.15;;
6832;SDS011;3454;42.654;23.378;2022-08-19T09:27:43;4.63;;;4.22;;
6832;SDS011;3454;42.654;23.378;2022-08-19T09:30:19;5.00;;;4.20;;
6832;SDS011;3454;42.654;23.378;2022-08-19T09:32:48;5.40;;;4.35;;
6832;SDS011;3454;42.654;23.378;2022-08-19T09:35:14;5.38;;;3.83;;
6832;SDS011;3454;42.654;23.378;2022-08-19T09:37:40;5.03;;;3.10;;
6832;SDS011;3454;42.654;23.378;2022-08-19T09:40:07;4.25;;;3.22;;
6832;SDS011;3454;42.654;23.378;2022-08-19T09:42:33;5.82;;;4.00;;
6832;SDS011;3454;42.654;23.378;2022-08-19T09:44:59;5.13;;;3.70;;
6832;SDS011;3454;42.654;23.378;2022-08-19T09:47:26;4.35;;;3.47;;
6832;SDS011;3454;42.654;23.378;2022-08-19T09:49:51;3.78;;;3.47;;
6832;SDS011;3454;42.654;23.378;2022-08-19T09:52:17;3.78;;;3.47;;
6832;SDS011;3454;42.654;23.378;2022-08-19T09:54:43;3.60;;;3.30;;
6832;SDS011;3454;42.654;23.378;2022-08-19T09:57:08;5.35;;;3.10;;
6832;SDS011;3454;42.654;23.378;2022-08-19T09:59:34;6.68;;;3.45;;
6832;SDS011;3454;42.654;23.378;2022-08-19T10:01:59;6.00;;;3.30;;
6832;SDS011;3454;42.654;23.378;2022-08-19T10:04:32;4.20;;;3.60;;
6832;SDS011;3454;42.654;23.378;2022-08-19T10:07:16;9.48;;;3.85;;
6832;SDS011;3454;42.654;23.378;2022-08-19T10:09:42;5.70;;;3.67;;
6832;SDS011;3454;42.654;23.378;2022-08-19T10:12:08;5.90;;;3.72;;
6832;SDS011;3454;42.654;23.378;2022-08-19T10:14:34;4.95;;;3.83;;
6832;SDS011;3454;42.654;23.378;2022-08-19T10:17:00;7.35;;;4.03;;
6832;SDS011;3454;42.654;23.378;2022-08-19T10:19:27;6.05;;;4.10;;
6832;SDS011;3454;42.654;23.378;2022-08-19T10:21:57;5.82;;;4.10;;
6832;SDS011;3454;42.654;23.378;2022-08-19T10:24:22;4.30;;;3.80;;
6832;SDS011;3454;42.654;23.378;2022-08-19T10:26:49;5.82;;;4.20;;
6832;SDS011;3454;42.654;23.378;2022-08-19T10:29:14;5.43;;;3.78;;
6832;SDS011;3454;42.654;23.378;2022-08-19T10:31:41;6.70;;;4.10;;
6832;SDS011;3454;42.654;23.378;2022-08-19T10:34:07;5.07;;;4.38;;
6832;SDS011;3454;42.654;23.378;2022-08-19T10:36:34;10.38;;;3.80;;
6832;SDS011;3454;42.654;23.378;2022-08-19T10:39:06;5.47;;;4.53;;
6832;SDS011;3454;42.654;23.378;2022-08-19T10:41:34;4.43;;;4.00;;
6832;SDS011;3454;42.654;23.378;2022-08-19T10:44:02;11.57;;;4.22;;
6832;SDS011;3454;42.654;23.378;2022-08-19T10:46:30;6.35;;;3.83;;
6832;SDS011;3454;42.654;23.378;2022-08-19T10:48:58;7.97;;;4.38;;
6832;SDS011;3454;42.654;23.378;2022-08-19T10:51:24;4.75;;;4.35;;
6832;SDS011;3454;42.654;23.378;2022-08-19T10:54:09;8.07;;;4.03;;
6832;SDS011;3454;42.654;23.378;2022-08-19T10:56:35;4.18;;;3.75;;
6832;SDS011;3454;42.654;23.378;2022-08-19T10:59:21;5.38;;;4.65;;
6832;SDS011;3454;42.654;23.378;2022-08-19T11:01:49;5.15;;;4.70;;
6832;SDS011;3454;42.654;23.378;2022-08-19T11:04:15;5.25;;;3.80;;
6832;SDS011;3454;42.654;23.378;2022-08-19T11:06:43;5.45;;;4.10;;
6832;SDS011;3454;42.654;23.378;2022-08-19T11:09:13;6.25;;;4.25;;
6832;SDS011;3454;42.654;23.378;2022-08-19T11:11:40;7.80;;;3.90;;
6832;SDS011;3454;42.654;23.378;2022-08-19T11:14:07;4.30;;;4.00;;
6832;SDS011;3454;42.654;23.378;2022-08-19T11:16:35;4.65;;;4.13;;
6832;SDS011;3454;42.654;23.378;2022-08-19T11:19:02;6.20;;;4.22;;
6832;SDS011;3454;42.654;23.378;2022-08-19T11:21:32;7.95;;;4.22;;
6832;SDS011;3454;42.654;23.378;2022-08-19T11:24:09;4.45;;;4.05;;
6832;SDS011;3454;42.654;23.378;2022-08-19T11:26:38;5.35;;;4.95;;
6832;SDS011;3454;42.654;23.378;2022-08-19T11:29:06;4.57;;;4.18;;
6832;SDS011;3454;42.654;23.378;2022-08-19T11:31:36;6.95;;;4.13;;
6832;SDS011;3454;42.654;23.378;2022-08-19T11:34:05;4.25;;;3.85;;
6832;SDS011;3454;42.654;23.378;2022-08-19T11:36:32;4.45;;;4.03;;
6832;SDS011;3454;42.654;23.378;2022-08-19T11:39:00;6.05;;;4.45;;
6832;SDS011;3454;42.654;23.378;2022-08-19T11:41:26;4.57;;;4.10;;
6832;SDS011;3454;42.654;23.378;2022-08-19T11:43:53;4.97;;;4.47;;
6832;SDS011;3454;42.654;23.378;2022-08-19T11:46:20;4.20;;;3.80;;
6832;SDS011;3454;42.654;23.378;2022-08-19T11:48:47;6.45;;;3.85;;
6832;SDS011;3454;42.654;23.378;2022-08-19T11:51:15;4.90;;;4.45;;
6832;SDS011;3454;42.654;23.378;2022-08-19T11:53:52;5.45;;;4.32;;
6832;SDS011;3454;42.654;23.378;2022-08-19T11:56:19;6.85;;;4.45;;
6832;SDS011;3454;42.654;23.378;2022-08-19T11:58:45;6.70;;;4.18;;
6832;SDS011;3454;42.654;23.378;2022-08-19T12:01:12;4.60;;;4.10;;
6832;SDS011;3454;42.654;23.378;2022-08-19T12:03:41;7.72;;;5.55;;
6832;SDS011;3454;42.654;23.378;2022-08-19T12:06:09;6.10;;;4.95;;
6832;SDS011;3454;42.654;23.378;2022-08-19T12:08:38;5.60;;;4.93;;
6832;SDS011;3454;42.654;23.378;2022-08-19T12:11:05;4.80;;;4.28;;
6832;SDS011;3454;42.654;23.378;2022-08-19T12:13:32;5.07;;;4.38;;
6832;SDS011;3454;42.654;23.378;2022-08-19T12:15:59;5.53;;;4.60;;
6832;SDS011;3454;42.654;23.378;2022-08-19T12:18:26;5.78;;;4.28;;
6832;SDS011;3454;42.654;23.378;2022-08-19T12:20:52;5.07;;;4.25;;
6832;SDS011;3454;42.654;23.378;2022-08-19T12:23:21;4.63;;;4.22;;
6832;SDS011;3454;42.654;23.378;2022-08-19T12:25:48;6.72;;;4.35;;
6832;SDS011;3454;42.654;23.378;2022-08-19T12:28:20;4.15;;;3.75;;
6832;SDS011;3454;42.654;23.378;2022-08-19T12:30:48;6.88;;;4.65;;
6832;SDS011;3454;42.654;23.378;2022-08-19T12:33:15;5.18;;;4.13;;
6832;SDS011;3454;42.654;23.378;2022-08-19T12:35:42;5.30;;;4.63;;
6832;SDS011;3454;42.654;23.378;2022-08-19T12:38:09;4.72;;;4.13;;
6832;SDS011;3454;42.654;23.378;2022-08-19T12:40:35;5.22;;;4.18;;
6832;SDS011;3454;42.654;23.378;2022-08-19T12:43:00;5.88;;;4.97;;
6832;SDS011;3454;42.654;23.378;2022-08-19T12:45:26;6.78;;;5.40;;
6832;SDS011;3454;42.654;23.378;2022-08-19T12:47:52;6.13;;;5.05;;
6832;SDS011;3454;42.654;23.378;2022-08-19T12:50:18;6.40;;;5.00;;
6832;SDS011;3454;42.654;23.378;2022-08-19T12:52:46;8.40;;;5.50;;
6832;SDS011;3454;42.654;23.378;2022-08-19T12:55:13;6.25;;;4.65;;
6832;SDS011;3454;42.654;23.378;2022-08-19T12:57:39;6.30;;;4.63;;
6832;SDS011;3454;42.654;23.378;2022-08-19T13:00:06;5.90;;;4.25;;
6832;SDS011;3454;42.654;23.378;2022-08-19T13:02:38;5.30;;;4.90;;
6832;SDS011;3454;42.654;23.378;2022-08-19T13:05:06;8.30;;;5.03;;
6832;SDS011;3454;42.654;23.378;2022-08-19T13:07:33;5.05;;;4.28;;
6832;SDS011;3454;42.654;23.378;2022-08-19T13:09:59;6.88;;;5.10;;
6832;SDS011;3454;42.654;23.378;2022-08-19T13:12:25;7.55;;;4.55;;
6832;SDS011;3454;42.654;23.378;2022-08-19T13:14:52;6.32;;;4.88;;
6832;SDS011;3454;42.654;23.378;2022-08-19T13:17:19;6.10;;;5.00;;
6832;SDS011;3454;42.654;23.378;2022-08-19T13:19:44;9.90;;;4.50;;
6832;SDS011;3454;42.654;23.378;2022-08-19T13:22:10;8.45;;;5.10;;
6832;SDS011;3454;42.654;23.378;2022-08-19T13:24:36;5.53;;;4.82;;
6832;SDS011;3454;42.654;23.378;2022-08-19T13:27:02;5.25;;;4.75;;
6832;SDS011;3454;42.654;23.378;2022-08-19T13:29:28;5.47;;;4.63;;
6832;SDS011;3454;42.654;23.378;2022-08-19T13:32:12;6.60;;;5.28;;
6832;SDS011;3454;42.654;23.378;2022-08-19T13:34:56;6.97;;;4.28;;
6832;SDS011;3454;42.654;23.378;2022-08-19T13:37:22;7.28;;;4.43;;
6832;SDS011;3454;42.654;23.378;2022-08-19T13:40:06;9.60;;;5.60;;
6832;SDS011;3454;42.654;23.378;2022-08-19T13:42:36;5.07;;;4.57;;
6832;SDS011;3454;42.654;23.378;2022-08-19T13:45:02;5.72;;;5.22;;
6832;SDS011;3454;42.654;23.378;2022-08-19T13:47:29;5.85;;;5.05;;
6832;SDS011;3454;42.654;23.378;2022-08-19T13:49:55;8.05;;;4.85;;
6832;SDS011;3454;42.654;23.378;2022-08-19T13:52:20;6.07;;;4.60;;
6832;SDS011;3454;42.654;23.378;2022-08-19T13:54:46;7.00;;;4.78;;
6832;SDS011;3454;42.654;23.378;2022-08-19T13:57:12;9.00;;;4.60;;
6832;SDS011;3454;42.654;23.378;2022-08-19T13:59:38;5.47;;;5.03;;
6832;SDS011;3454;42.654;23.378;2022-08-19T14:02:03;5.72;;;4.70;;
6832;SDS011;3454;42.654;23.378;2022-08-19T14:04:30;5.15;;;4.60;;
6832;SDS011;3454;42.654;23.378;2022-08-19T14:06:56;6.15;;;4.70;;
6832;SDS011;3454;42.654;23.378;2022-08-19T14:09:21;6.70;;;5.05;;
6832;SDS011;3454;42.654;23.378;2022-08-19T14:11:47;6.50;;;4.82;;
6832;SDS011;3454;42.654;23.378;2022-08-19T14:14:12;6.47;;;4.63;;
6832;SDS011;3454;42.654;23.378;2022-08-19T14:16:38;5.93;;;4.75;;
6832;SDS011;3454;42.654;23.378;2022-08-19T14:19:03;15.00;;;12.13;;
6832;SDS011;3454;42.654;23.378;2022-08-19T14:21:28;8.75;;;5.00;;
6832;SDS011;3454;42.654;23.378;2022-08-19T14:23:54;14.98;;;9.43;;
6832;SDS011;3454;42.654;23.378;2022-08-19T14:26:20;8.27;;;5.55;;
6832;SDS011;3454;42.654;23.378;2022-08-19T14:28:48;9.25;;;4.95;;
6832;SDS011;3454;42.654;23.378;2022-08-19T14:31:20;8.95;;;5.50;;
6832;SDS011;3454;42.654;23.378;2022-08-19T14:33:48;9.13;;;5.28;;
6832;SDS011;3454;42.654;23.378;2022-08-19T14:36:15;8.80;;;4.75;;
6832;SDS011;3454;42.654;23.378;2022-08-19T14:38:41;6.93;;;4.50;;
6832;SDS011;3454;42.654;23.378;2022-08-19T14:41:21;7.82;;;4.45;;
6832;SDS011;3454;42.654;23.378;2022-08-19T14:43:48;6.97;;;4.80;;
6832;SDS011;3454;42.654;23.378;2022-08-19T14:46:16;9.18;;;5.38;;
6832;SDS011;3454;42.654;23.378;2022-08-19T14:48:45;10.32;;;5.05;;
6832;SDS011;3454;42.654;23.378;2022-08-19T14:51:11;8.35;;;4.88;;
6832;SDS011;3454;42.654;23.378;2022-08-19T14:53:37;7.50;;;5.13;;
6832;SDS011;3454;42.654;23.378;2022-08-19T14:56:07;7.63;;;4.68;;
6832;SDS011;3454;42.654;23.378;2022-08-19T14:58:34;6.13;;;4.90;;
6832;SDS011;3454;42.654;23.378;2022-08-19T15:01:00;7.88;;;5.35;;
6832;SDS011;3454;42.654;23.378;2022-08-19T15:03:26;9.90;;;5.95;;
6832;SDS011;3454;42.654;23.378;2022-08-19T15:05:52;7.43;;;4.60;;
6832;SDS011;3454;42.654;23.378;2022-08-19T15:08:18;8.32;;;5.43;;
6832;SDS011;3454;42.654;23.378;2022-08-19T15:10:43;8.50;;;4.97;;
6832;SDS011;3454;42.654;23.378;2022-08-19T15:13:09;7.70;;;4.75;;
6832;SDS011;3454;42.654;23.378;2022-08-19T15:15:34;9.60;;;4.97;;
6832;SDS011;3454;42.654;23.378;2022-08-19T15:18:00;8.40;;;5.03;;